Time;durP1;ratioP1;P1;durP2;ratioP2;P2;SDS_P1;SDS_P2;PMS_P1;PMS_P2;Temp;Humidity;BMP_temperature;BMP_pressure;BME280_temperature;BME280_humidity;BME280_pressure;Samples;Min_cycle;Max_cycle;Signal;HPM_P1;HPM_P2
2023/10/08 00:00:39;;;;;;;5.43;2.80;;;12.40;1.00;;;;;;4977506;28;20394;-89
2023/10/08 00:02:49;;;;;;;4.22;3.10;;;12.20;1.00;;;;;;4996799;28;20818;-89
2023/10/08 00:05:16;;;;;;;6.57;3.30;;;11.90;1.00;;;;;;4996955;28;20392;-89
2023/10/08 00:07:42;;;;;;;4.55;2.90;;;11.90;1.00;;;;;;4994923;28;20401;-89
2023/10/08 00:10:08;;;;;;;5.88;3.20;;;11.80;1.00;;;;;;4977352;28;20391;-88
2023/10/08 00:12:34;;;;;;;4.30;2.80;;;11.80;1.00;;;;;;4976909;28;20465;-89
2023/10/08 00:15:07;;;;;;;4.13;2.90;;;11.40;1.00;;;;;;4977000;28;20815;-90
2023/10/08 00:17:32;;;;;;;5.13;3.28;;;11.70;1.00;;;;;;4977039;28;20390;-89
2023/10/08 00:20:00;;;;;;;3.90;2.80;;;11.60;1.00;;;;;;4976146;28;20465;-89
2023/10/08 00:22:26;;;;;;;4.68;3.53;;;11.50;1.00;;;;;;4994057;28;20441;-88
2023/10/08 00:24:58;;;;;;;3.50;2.87;;;11.50;1.00;;;;;;4976681;28;20422;-90
2023/10/08 00:27:26;;;;;;;4.30;3.20;;;11.50;1.00;;;;;;4994157;28;20438;-89
2023/10/08 00:29:52;;;;;;;4.28;2.85;;;11.40;1.00;;;;;;5003068;28;20386;-89
2023/10/08 00:32:17;;;;;;;3.88;3.03;;;11.30;1.00;;;;;;5001310;28;20406;-88
2023/10/08 00:34:44;;;;;;;6.17;3.10;;;11.50;1.00;;;;;;4999973;28;20416;-90
2023/10/08 00:37:11;;;;;;;3.42;2.50;;;11.30;1.00;;;;;;4976983;28;20398;-89
2023/10/08 00:39:39;;;;;;;4.00;2.50;;;11.40;1.00;;;;;;4975925;28;20449;-89
2023/10/08 00:42:07;;;;;;;4.05;2.83;;;11.30;1.00;;;;;;4975712;28;20802;-89
2023/10/08 00:44:37;;;;;;;5.22;3.10;;;11.20;1.00;;;;;;4975987;28;20755;-87
2023/10/08 00:47:04;;;;;;;5.35;3.25;;;10.90;1.00;;;;;;4993614;28;20414;-89
2023/10/08 00:57:21;;;;;;;4.10;2.40;;;11.10;1.00;;;;;;4993685;28;20409;-89
2023/10/08 00:59:53;;;;;;;4.22;3.03;;;11.50;1.00;;;;;;4975922;28;20433;-89
2023/10/08 01:02:28;;;;;;;5.78;3.08;;;11.30;1.00;;;;;;4976239;28;20399;-89
2023/10/08 01:04:57;;;;;;;3.75;2.55;;;11.50;1.00;;;;;;4993511;28;20391;-88
2023/10/08 01:07:24;;;;;;;4.00;3.40;;;11.60;1.00;;;;;;4975971;28;20402;-88
2023/10/08 01:09:51;;;;;;;5.68;2.90;;;11.50;1.00;;;;;;4993108;28;20917;-89
2023/10/08 01:12:40;;;;;;;5.70;3.10;;;12.10;1.00;;;;;;4975762;28;20521;-89
2023/10/08 01:18:17;;;;;;;5.25;3.10;;;11.40;1.00;;;;;;4996343;28;20400;-91
2023/10/08 01:23:10;;;;;;;4.45;3.20;;;11.30;1.00;;;;;;4993180;28;20930;-90
2023/10/08 01:25:50;;;;;;;5.43;3.28;;;11.40;1.00;;;;;;4975892;28;20417;-90
2023/10/08 01:28:26;;;;;;;4.82;3.20;;;11.20;1.00;;;;;;4993116;28;20808;-88
2023/10/08 01:31:04;;;;;;;4.43;2.90;;;13.30;1.00;;;;;;4975038;28;20402;-88
2023/10/08 01:33:37;;;;;;;4.75;2.83;;;10.30;1.00;;;;;;4975687;28;20416;-88
2023/10/08 01:36:04;;;;;;;7.43;2.90;;;11.00;1.00;;;;;;4975614;28;20394;-88
2023/10/08 01:38:32;;;;;;;4.13;3.07;;;11.30;1.00;;;;;;4975626;28;21001;-88
2023/10/08 01:41:18;;;;;;;6.05;2.90;;;11.10;1.00;;;;;;4977852;28;20433;-88
2023/10/08 01:43:48;;;;;;;6.13;2.92;;;11.20;1.00;;;;;;4991794;28;20416;-91
2023/10/08 01:46:15;;;;;;;4.43;2.72;;;11.60;1.00;;;;;;4975558;28;20411;-89
2023/10/08 01:48:44;;;;;;;5.53;2.80;;;11.10;1.00;;;;;;4975285;28;20394;-90
2023/10/08 01:51:11;;;;;;;4.78;2.60;;;11.40;1.00;;;;;;5001320;23;20465;-83
2023/10/08 01:53:41;;;;;;;4.63;3.00;;;10.00;1.00;;;;;;5025868;28;20381;-82
2023/10/08 01:56:07;;;;;;;3.90;2.40;;;10.90;1.00;;;;;;5001030;28;20391;-84
2023/10/08 01:58:33;;;;;;;4.60;3.03;;;10.60;1.00;;;;;;5020209;28;20411;-84
2023/10/08 02:01:00;;;;;;;5.65;3.00;;;10.40;1.00;;;;;;5030565;28;20454;-84
2023/10/08 02:03:27;;;;;;;5.63;3.10;;;10.70;1.00;;;;;;5007688;28;20523;-84
2023/10/08 02:05:53;;;;;;;3.97;2.78;;;10.80;1.00;;;;;;5003451;28;20455;-83
2023/10/08 02:08:20;;;;;;;4.30;2.90;;;10.80;1.00;;;;;;5005580;28;20465;-83
2023/10/08 02:10:47;;;;;;;5.55;2.97;;;11.20;1.00;;;;;;5009559;28;20422;-84
2023/10/08 02:13:14;;;;;;;3.53;2.70;;;11.10;1.00;;;;;;4999986;28;20417;-84
2023/10/08 02:15:53;;;;;;;4.90;3.03;;;10.70;1.00;;;;;;4999672;28;20431;-84
2023/10/08 02:18:19;;;;;;;5.00;2.42;;;10.80;1.00;;;;;;4999231;28;20430;-83
2023/10/08 02:20:45;;;;;;;4.25;2.60;;;10.80;1.00;;;;;;4999605;28;20399;-83
2023/10/08 02:23:11;;;;;;;4.03;3.00;;;10.50;1.00;;;;;;5011552;28;20520;-84
2023/10/08 02:25:39;;;;;;;5.53;2.67;;;10.60;1.00;;;;;;5026988;28;20473;-84
2023/10/08 02:28:08;;;;;;;4.38;2.92;;;10.70;1.00;;;;;;5016330;28;20462;-84
2023/10/08 02:30:36;;;;;;;4.90;2.90;;;10.90;1.00;;;;;;5013367;28;20562;-84
2023/10/08 02:33:02;;;;;;;6.10;3.17;;;10.80;1.00;;;;;;5016499;28;20394;-84
2023/10/08 02:35:27;;;;;;;5.47;2.80;;;10.90;1.00;;;;;;5016148;28;20458;-84
2023/10/08 02:37:54;;;;;;;5.30;3.13;;;10.80;1.00;;;;;;4999484;28;20422;-83
2023/10/08 02:40:25;;;;;;;7.95;3.08;;;10.60;1.00;;;;;;4999273;28;20394;-84
2023/10/08 02:42:52;;;;;;;5.13;2.97;;;10.80;1.00;;;;;;5002099;28;20406;-84
2023/10/08 02:45:21;;;;;;;5.55;3.30;;;10.90;1.00;;;;;;5003094;28;20410;-83
2023/10/08 02:47:47;;;;;;;6.15;3.40;;;10.60;1.00;;;;;;5003553;28;20395;-83
2023/10/08 02:50:17;;;;;;;5.35;3.40;;;10.50;1.00;;;;;;5019840;28;20489;-82
2023/10/08 02:52:44;;;;;;;6.40;3.15;;;11.70;1.00;;;;;;5002939;28;21432;-83
2023/10/08 02:55:18;;;;;;;6.60;3.25;;;10.60;1.00;;;;;;5003161;28;20401;-83
2023/10/08 02:57:43;;;;;;;6.55;2.83;;;10.90;1.00;;;;;;5003257;28;20426;-84
2023/10/08 03:00:13;;;;;;;4.93;2.83;;;10.80;1.00;;;;;;5003197;28;21352;-84
2023/10/08 03:02:39;;;;;;;3.93;2.93;;;10.80;1.00;;;;;;5002831;28;20453;-84
2023/10/08 03:05:08;;;;;;;6.60;3.00;;;10.40;1.00;;;;;;5003071;28;20441;-85
2023/10/08 03:07:35;;;;;;;7.28;3.25;;;10.80;1.00;;;;;;5019307;28;20418;-84
2023/10/08 03:10:05;;;;;;;5.72;3.10;;;10.50;1.00;;;;;;5019946;28;20421;-84
2023/10/08 03:12:35;;;;;;;5.10;2.97;;;10.40;1.00;;;;;;5002799;28;20453;-84
2023/10/08 03:17:51;;;;;;;5.80;2.60;;;10.70;1.00;;;;;;5000335;28;20556;-84
2023/10/08 03:20:37;;;;;;;6.88;3.05;;;10.30;1.00;;;;;;4999498;28;20392;-85
2023/10/08 03:23:12;;;;;;;4.95;2.95;;;10.30;1.00;;;;;;4989660;28;20474;-84
2023/10/08 03:25:41;;;;;;;7.00;3.33;;;10.60;1.00;;;;;;5002288;28;20430;-85
2023/10/08 03:28:08;;;;;;;6.95;3.40;;;11.00;1.00;;;;;;5000985;28;20406;-84
2023/10/08 03:30:47;;;;;;;5.35;3.25;;;9.80;1.00;;;;;;5000192;28;20399;-84
2023/10/08 03:33:21;;;;;;;6.57;3.30;;;10.00;1.00;;;;;;5001594;28;20476;-84
2023/10/08 03:35:54;;;;;;;5.55;2.80;;;10.30;1.00;;;;;;5017890;28;20429;-84
2023/10/08 03:38:44;;;;;;;6.07;3.30;;;10.10;1.00;;;;;;4998700;28;20383;-84
2023/10/08 03:41:09;;;;;;;6.72;3.13;;;10.20;1.00;;;;;;5012812;28;20413;-85
2023/10/08 03:43:42;;;;;;;7.18;3.50;;;10.20;1.00;;;;;;4995357;28;20430;-84
2023/10/08 03:46:14;;;;;;;5.97;2.90;;;10.30;1.00;;;;;;5011117;28;20847;-84
2023/10/08 03:48:44;;;;;;;6.18;3.17;;;11.30;1.00;;;;;;4991809;28;20421;-84
2023/10/08 03:51:12;;;;;;;5.82;3.03;;;10.40;1.00;;;;;;4970273;28;20407;-84
2023/10/08 03:54:15;;;;;;;8.07;3.28;;;10.30;1.00;;;;;;4968565;28;20381;-85
2023/10/08 03:56:29;;;;;;;8.82;3.20;;;10.30;1.00;;;;;;4992777;28;20407;-85
2023/10/08 03:58:55;;;;;;;6.88;3.15;;;10.10;1.00;;;;;;4968991;28;20410;-85
2023/10/08 04:01:21;;;;;;;6.38;2.63;;;10.50;1.00;;;;;;4983285;28;20398;-84
2023/10/08 04:06:37;;;;;;;6.32;2.90;;;10.30;1.00;;;;;;4998337;28;20500;-85
2023/10/08 04:12:04;;;;;;;5.63;3.33;;;11.90;1.00;;;;;;4997935;28;20405;-85
2023/10/08 04:14:28;;;;;;;6.45;3.28;;;10.80;1.00;;;;;;4997554;28;20397;-86
2023/10/08 04:16:53;;;;;;;7.25;2.80;;;10.60;1.00;;;;;;4998299;28;20422;-86
2023/10/08 04:19:21;;;;;;;6.03;2.90;;;10.40;1.00;;;;;;4997308;28;20402;-85
2023/10/08 04:21:53;;;;;;;6.05;3.08;;;10.90;1.00;;;;;;4979483;28;20390;-85
2023/10/08 04:24:20;;;;;;;6.38;3.10;;;10.80;1.00;;;;;;4986554;28;20410;-85
2023/10/08 04:26:46;;;;;;;6.55;2.97;;;10.50;1.00;;;;;;4998024;28;20409;-85
2023/10/08 04:29:16;;;;;;;5.47;2.65;;;10.70;1.00;;;;;;5010228;28;20405;-86
2023/10/08 04:31:46;;;;;;;4.50;2.83;;;11.30;1.00;;;;;;4978329;28;20530;-85
2023/10/08 04:34:22;;;;;;;4.95;2.80;;;11.30;1.00;;;;;;4979089;28;20474;-84
2023/10/08 04:36:54;;;;;;;7.07;2.85;;;10.80;1.00;;;;;;5008207;28;20390;-83
2023/10/08 04:39:31;;;;;;;7.20;3.00;;;10.80;1.00;;;;;;4981535;28;20400;-84
2023/10/08 04:42:05;;;;;;;6.38;3.15;;;10.80;1.00;;;;;;4975204;28;20412;-84
2023/10/08 04:44:31;;;;;;;5.93;3.10;;;10.70;1.00;;;;;;4979139;28;20402;-85
2023/10/08 04:47:04;;;;;;;6.57;2.90;;;10.90;1.00;;;;;;4976794;28;20946;-85
2023/10/08 04:49:32;;;;;;;7.13;3.42;;;10.90;1.00;;;;;;4977391;28;20399;-84
2023/10/08 04:52:14;;;;;;;6.13;3.17;;;10.40;1.00;;;;;;4995114;28;20401;-85
2023/10/08 04:54:46;;;;;;;7.57;3.92;;;10.90;1.00;;;;;;4976855;28;20764;-85
2023/10/08 04:57:15;;;;;;;10.18;4.00;;;10.70;1.00;;;;;;4978093;28;20421;-85
2023/10/08 04:59:42;;;;;;;7.95;4.10;;;9.80;1.00;;;;;;4994722;28;20398;-85
2023/10/08 05:13:32;;;;;;;7.15;3.30;;;10.50;1.00;;;;;;4935252;29;20395;-86
2023/10/08 05:16:19;;;;;;;5.80;2.97;;;10.50;1.00;;;;;;4974238;28;20402;-85
2023/10/08 05:21:40;;;;;;;8.40;3.90;;;10.50;1.00;;;;;;4998460;28;20409;-86
2023/10/08 05:24:12;;;;;;;8.98;4.03;;;10.40;1.00;;;;;;4996453;28;20409;-85
2023/10/08 05:26:49;;;;;;;8.63;3.80;;;10.80;1.00;;;;;;4995077;28;20493;-86
2023/10/08 05:32:37;;;;;;;7.65;4.05;;;10.90;1.00;;;;;;4914253;29;20442;-86
2023/10/08 05:37:52;;;;;;;7.05;3.65;;;11.00;1.00;;;;;;4998271;28;20489;-85
2023/10/08 05:40:54;;;;;;;7.85;3.97;;;10.60;1.00;;;;;;4976102;28;20399;-84
2023/10/08 05:43:22;;;;;;;7.25;3.42;;;10.90;1.00;;;;;;4992384;28;20433;-85
2023/10/08 05:46:18;;;;;;;8.95;3.40;;;11.10;1.00;;;;;;4992446;28;20419;-84
2023/10/08 05:48:44;;;;;;;7.78;3.70;;;10.90;1.00;;;;;;4992599;28;20394;-85
2023/10/08 05:51:23;;;;;;;7.80;3.40;;;11.00;1.00;;;;;;4975020;28;20406;-85
2023/10/08 05:53:54;;;;;;;6.60;3.00;;;11.00;1.00;;;;;;4992325;28;20399;-84
2023/10/08 05:56:41;;;;;;;8.82;3.15;;;10.70;1.00;;;;;;4977688;28;20452;-85
2023/10/08 05:59:17;;;;;;;9.07;3.58;;;10.90;1.00;;;;;;4975073;28;20858;-85
2023/10/08 06:01:46;;;;;;;7.47;3.60;;;11.00;1.00;;;;;;4993468;28;20390;-84
2023/10/08 06:04:31;;;;;;;6.25;3.17;;;11.00;1.00;;;;;;4976645;28;20406;-84
2023/10/08 06:07:12;;;;;;;5.90;3.30;;;11.00;1.00;;;;;;4978655;28;20421;-84
2023/10/08 06:09:39;;;;;;;8.10;3.17;;;10.90;1.00;;;;;;5014715;28;20398;-84
2023/10/08 06:12:19;;;;;;;7.22;3.70;;;10.80;1.00;;;;;;4997509;28;20370;-85
2023/10/08 06:17:56;;;;;;;5.35;3.10;;;11.00;1.00;;;;;;5014106;28;20393;-84
2023/10/08 06:20:25;;;;;;;6.38;2.88;;;10.90;1.00;;;;;;4998016;28;20414;-85
2023/10/08 06:22:54;;;;;;;6.50;3.10;;;11.10;1.00;;;;;;4996942;28;20402;-85
2023/10/08 06:25:23;;;;;;;5.65;2.92;;;11.20;1.00;;;;;;4997454;28;20398;-84
2023/10/08 06:27:53;;;;;;;7.28;3.90;;;10.30;1.00;;;;;;5013901;28;20387;-85
2023/10/08 06:30:19;;;;;;;7.45;3.75;;;10.80;1.00;;;;;;4992285;28;20387;-85
2023/10/08 06:32:45;;;;;;;8.47;3.37;;;11.50;1.00;;;;;;4983904;28;20430;-85
2023/10/08 06:35:17;;;;;;;8.88;3.70;;;11.40;1.00;;;;;;4983316;28;20525;-85
2023/10/08 06:37:49;;;;;;;8.35;3.40;;;11.60;1.00;;;;;;4978412;28;20407;-85
2023/10/08 06:43:03;;;;;;;8.48;4.00;;;11.30;1.00;;;;;;4994321;28;20401;-85
2023/10/08 06:45:32;;;;;;;8.20;3.90;;;11.20;1.00;;;;;;4994088;28;20406;-85
2023/10/08 06:48:05;;;;;;;10.52;3.80;;;11.40;1.00;;;;;;4981056;28;20394;-84
2023/10/08 06:50:32;;;;;;;7.85;3.55;;;12.00;1.00;;;;;;4978031;28;20402;-85
2023/10/08 06:53:07;;;;;;;8.38;3.90;;;10.90;1.00;;;;;;4978430;28;20407;-85
2023/10/08 06:55:40;;;;;;;8.05;3.38;;;11.80;1.00;;;;;;4977868;28;20402;-85
2023/10/08 06:58:08;;;;;;;7.10;3.78;;;13.20;1.00;;;;;;4977980;28;20398;-85
2023/10/08 07:00:48;;;;;;;9.73;3.80;;;12.00;1.00;;;;;;4986256;28;20451;-85
2023/10/08 07:03:17;;;;;;;6.80;3.47;;;11.80;1.00;;;;;;4985673;28;20398;-84
2023/10/08 07:06:04;;;;;;;7.17;3.93;;;12.00;1.00;;;;;;4980598;28;20410;-85
2023/10/08 07:08:31;;;;;;;6.10;3.50;;;12.00;1.00;;;;;;5001972;28;20418;-85
2023/10/08 07:11:04;;;;;;;5.63;3.20;;;10.90;1.00;;;;;;4997899;28;20466;-87
2023/10/08 07:13:30;;;;;;;10.07;4.30;;;11.50;1.00;;;;;;4998807;28;20387;-86
2023/10/08 07:15:56;;;;;;;8.57;3.77;;;11.70;1.00;;;;;;4998716;28;20497;-86
2023/10/08 07:18:25;;;;;;;6.68;3.50;;;12.30;1.00;;;;;;4997306;28;20394;-85
2023/10/08 07:20:56;;;;;;;7.87;3.53;;;15.20;1.00;;;;;;4979556;28;20390;-85
2023/10/08 07:23:27;;;;;;;9.70;3.60;;;12.40;1.00;;;;;;4992452;28;20482;-85
2023/10/08 07:26:13;;;;;;;6.78;3.42;;;12.30;1.00;;;;;;4973850;28;20415;-85
2023/10/08 07:28:40;;;;;;;10.37;4.37;;;14.90;1.00;;;;;;4978703;28;20396;-85
2023/10/08 07:31:15;;;;;;;9.27;3.47;;;12.40;1.00;;;;;;4977849;28;20391;-85
2023/10/08 07:33:43;;;;;;;7.20;3.95;;;12.60;1.00;;;;;;4974992;28;20764;-85
2023/10/08 07:36:14;;;;;;;6.13;3.80;;;12.50;1.00;;;;;;4987452;28;20497;-85
2023/10/08 07:38:42;;;;;;;5.95;3.60;;;12.40;1.00;;;;;;4983364;28;20395;-85
2023/10/08 07:41:14;;;;;;;6.70;4.00;;;12.40;1.00;;;;;;4981295;28;20391;-85
2023/10/08 07:43:42;;;;;;;7.72;3.88;;;12.60;1.00;;;;;;4999320;28;20409;-85
2023/10/08 07:46:09;;;;;;;7.00;3.90;;;12.50;1.00;;;;;;4998652;28;20410;-85
2023/10/08 07:48:35;;;;;;;7.55;3.67;;;12.80;1.00;;;;;;4979017;28;20418;-86
2023/10/08 07:51:01;;;;;;;8.88;4.00;;;12.90;1.00;;;;;;4983094;28;20409;-85
2023/10/08 07:53:37;;;;;;;5.80;3.65;;;13.20;1.00;;;;;;4995155;23;20432;-89
2023/10/08 07:56:06;;;;;;;6.30;3.70;;;13.50;1.00;;;;;;4984816;28;20392;-89
2023/10/08 07:58:34;;;;;;;6.72;3.70;;;13.70;1.00;;;;;;4965437;28;20404;-87
2023/10/08 08:01:20;;;;;;;10.37;4.40;;;16.70;1.00;;;;;;4965225;28;20397;-90
2023/10/08 08:03:48;;;;;;;8.80;3.90;;;14.00;1.00;;;;;;4956048;29;20469;-88
2023/10/08 08:06:17;;;;;;;9.50;4.33;;;14.00;1.00;;;;;;4973633;28;20500;-90
2023/10/08 08:08:45;;;;;;;7.23;3.97;;;14.10;1.00;;;;;;4977114;28;20384;-90
2023/10/08 08:11:17;;;;;;;7.90;3.97;;;14.30;1.00;;;;;;4973452;28;20415;-88
2023/10/08 08:13:46;;;;;;;7.00;3.90;;;14.40;1.00;;;;;;4964800;29;20401;-89
2023/10/08 08:16:20;;;;;;;8.00;3.70;;;14.70;1.00;;;;;;4961437;28;20492;-89
2023/10/08 08:18:52;;;;;;;6.78;3.50;;;14.80;1.00;;;;;;4954075;29;20457;-89
2023/10/08 08:21:30;;;;;;;7.27;3.73;;;15.00;1.00;;;;;;4957617;29;20461;-88
2023/10/08 08:24:05;;;;;;;9.95;3.85;;;15.00;1.00;;;;;;4959153;29;20409;-87
2023/10/08 08:26:39;;;;;;;10.80;3.83;;;15.50;1.00;;;;;;4970223;29;20421;-88
2023/10/08 08:29:08;;;;;;;7.85;4.00;;;15.30;1.00;;;;;;4961618;28;20382;-88
2023/10/08 08:31:35;;;;;;;10.45;4.10;;;15.70;1.00;;;;;;4966034;28;20983;-87
2023/10/08 08:34:13;;;;;;;10.87;5.20;;;15.60;1.00;;;;;;4959020;29;20405;-87
2023/10/08 08:36:46;;;;;;;8.15;4.18;;;15.90;1.00;;;;;;4967207;28;20407;-87
2023/10/08 08:39:27;;;;;;;9.77;5.03;;;15.90;1.00;;;;;;4964504;28;20394;-89
2023/10/08 08:42:00;;;;;;;9.32;3.78;;;16.20;1.00;;;;;;4968463;28;20398;-89
2023/10/08 08:44:57;;;;;;;13.27;4.37;;;16.20;1.00;;;;;;4976980;28;20404;-90
2023/10/08 08:47:28;;;;;;;12.13;4.60;;;16.40;1.00;;;;;;4963681;28;20498;-90
2023/10/08 08:50:09;;;;;;;14.20;4.38;;;16.60;1.00;;;;;;4944313;28;20809;-90
2023/10/08 08:52:45;;;;;;;8.93;4.00;;;18.20;1.00;;;;;;4966271;28;20426;-89
2023/10/08 08:55:14;;;;;;;9.10;4.43;;;16.80;1.00;;;;;;4959043;28;20454;-89
2023/10/08 08:57:45;;;;;;;16.23;4.30;;;17.20;1.00;;;;;;4972658;28;20471;-87
2023/10/08 09:00:21;;;;;;;9.02;4.10;;;17.30;1.00;;;;;;4956968;28;20491;-88
2023/10/08 09:02:55;;;;;;;13.27;4.20;;;17.40;1.00;;;;;;4958575;28;20771;-90
2023/10/08 09:05:40;;;;;;;10.40;4.30;;;17.20;1.00;;;;;;4993116;28;20400;-91
2023/10/08 09:08:12;;;;;;;11.30;4.10;;;17.30;1.00;;;;;;4985833;28;20772;-91
2023/10/08 09:10:56;;;;;;;12.48;4.32;;;17.70;1.00;;;;;;4984717;28;20384;-91
2023/10/08 09:13:41;;;;;;;10.63;3.90;;;17.70;1.00;;;;;;4979455;28;20396;-91
2023/10/08 09:16:17;;;;;;;10.68;3.75;;;19.00;1.00;;;;;;4981682;28;20439;-93
2023/10/08 09:18:47;;;;;;;9.70;3.70;;;17.90;1.00;;;;;;4981893;28;20412;-92
2023/10/08 09:21:28;;;;;;;13.00;3.95;;;20.40;1.00;;;;;;4986117;28;20404;-90
2023/10/08 09:24:11;;;;;;;13.95;4.40;;;19.60;1.00;;;;;;4973563;28;20494;-92
2023/10/08 09:27:03;;;;;;;8.63;3.75;;;18.30;1.00;;;;;;4961316;28;20400;-91
2023/10/08 09:29:47;;;;;;;9.65;4.00;;;18.70;1.00;;;;;;4962980;28;20391;-90
2023/10/08 09:32:39;;;;;;;11.95;4.43;;;18.80;1.00;;;;;;4962016;28;20396;-91
2023/10/08 09:35:07;;;;;;;9.00;4.00;;;18.80;1.00;;;;;;4960279;28;20996;-89
2023/10/08 09:37:48;;;;;;;12.65;4.20;;;18.80;1.00;;;;;;4960316;28;20495;-91
2023/10/08 09:40:21;;;;;;;11.48;4.50;;;18.80;1.00;;;;;;4963762;28;20446;-95
2023/10/08 09:42:56;;;;;;;9.02;3.67;;;18.80;1.00;;;;;;4980182;28;20423;-91
2023/10/08 09:45:25;;;;;;;4.55;3.35;;;18.90;1.00;;;;;;4960161;28;20404;-92
2023/10/08 09:48:11;;;;;;;10.73;4.35;;;19.10;1.00;;;;;;4935671;29;20430;-91
2023/10/08 09:51:06;;;;;;;10.13;3.80;;;20.50;1.00;;;;;;4962557;28;20400;-91
2023/10/08 09:53:49;;;;;;;7.72;4.30;;;20.50;1.00;;;;;;4960407;28;20442;-92
2023/10/08 09:56:40;;;;;;;8.52;4.18;;;19.20;1.00;;;;;;4953328;28;20753;-92
2023/10/08 09:59:15;;;;;;;9.23;3.97;;;19.00;1.00;;;;;;4944649;28;20415;-91
2023/10/08 10:01:53;;;;;;;6.60;3.90;;;19.80;1.00;;;;;;4961199;28;20389;-92
2023/10/08 10:04:28;;;;;;;9.15;3.63;;;19.70;1.00;;;;;;4967280;28;20399;-91
2023/10/08 10:07:03;;;;;;;11.68;4.60;;;19.80;1.00;;;;;;4960035;28;20500;-91
2023/10/08 10:09:36;;;;;;;11.10;3.78;;;20.40;1.00;;;;;;4966098;28;20408;-91
2023/10/08 10:12:02;;;;;;;9.75;3.78;;;19.90;1.00;;;;;;4966309;28;21098;-90
2023/10/08 10:14:53;;;;;;;7.13;3.78;;;20.20;1.00;;;;;;4960339;28;20431;-90
2023/10/08 10:17:25;;;;;;;6.45;4.47;;;21.80;1.00;;;;;;4961799;28;20396;-90
2023/10/08 10:19:55;;;;;;;9.52;4.30;;;20.40;1.00;;;;;;4961641;28;20402;-91
2023/10/08 10:32:59;;;;;;;11.05;4.30;;;20.30;1.00;;;;;;4997551;28;20926;-91
2023/10/08 10:35:27;;;;;;;8.85;4.47;;;20.40;1.00;;;;;;4996300;28;20401;-89
2023/10/08 10:38:13;;;;;;;9.53;4.10;;;20.40;1.00;;;;;;4983599;28;20422;-92
2023/10/08 10:40:39;;;;;;;7.75;3.33;;;23.80;1.00;;;;;;4977524;28;20410;-88
2023/10/08 10:43:39;;;;;;;10.30;4.20;;;20.30;1.00;;;;;;4985208;28;20406;-88
2023/10/08 10:52:53;;;;;;;6.50;3.80;;;20.40;1.00;;;;;;4973657;28;20405;-91
2023/10/08 10:55:58;;;;;;;8.48;4.18;;;20.80;1.00;;;;;;4981545;28;20452;-91
2023/10/08 10:58:38;;;;;;;7.63;3.97;;;20.90;1.00;;;;;;4980695;28;20566;-90
2023/10/08 11:01:46;;;;;;;8.02;3.72;;;20.90;1.00;;;;;;4979091;28;20395;-91
2023/10/08 11:04:17;;;;;;;8.10;3.55;;;21.60;1.00;;;;;;5000859;28;20453;-92
2023/10/08 11:06:56;;;;;;;7.60;3.78;;;23.10;1.00;;;;;;4985100;28;20410;-91
2023/10/08 11:09:51;;;;;;;;;;;;;;;;;;;;;
2023/10/08 11:12:54;;;;;;;;;;;;;;;;;;;;;
2023/10/08 11:16:37;;;;;;;8.18;4.10;;;22.60;1.00;;;;;;5001929;28;20490;-92
2023/10/08 11:19:57;;;;;;;8.40;3.90;;;23.80;1.00;;;;;;4989126;28;20430;-90
2023/10/08 11:26:18;;;;;;;8.75;4.20;;;22.80;1.00;;;;;;4968227;28;20388;-92
2023/10/08 11:29:25;;;;;;;8.50;4.13;;;22.40;1.00;;;;;;4983560;28;20415;-93
2023/10/08 13:35:21;;;;;;;11.20;4.25;;;26.10;1.00;;;;;;4986600;28;20958;-90
2023/10/08 13:37:48;;;;;;;13.75;4.32;;;28.30;1.00;;;;;;4948058;29;20429;-91
2023/10/08 13:40:45;;;;;;;9.38;3.97;;;27.10;1.00;;;;;;4973039;28;20398;-93
2023/10/08 13:43:21;;;;;;;11.40;3.70;;;29.10;1.00;;;;;;4937471;28;20395;-92
2023/10/08 13:46:04;;;;;;;13.93;5.03;;;27.60;1.00;;;;;;4964324;28;20892;-91
2023/10/08 13:48:48;;;;;;;11.95;4.65;;;27.70;1.00;;;;;;4957626;28;20402;-91
2023/10/08 13:51:34;;;;;;;10.60;4.43;;;27.30;1.00;;;;;;4943501;28;20483;-90
2023/10/08 13:54:00;;;;;;;10.68;4.50;;;27.20;1.00;;;;;;4948275;28;20439;-91
2023/10/08 13:56:48;;;;;;;15.20;5.00;;;27.00;1.00;;;;;;4957918;28;20443;-90
2023/10/08 14:02:25;;;;;;;14.27;3.92;;;26.80;1.00;;;;;;4988715;28;20416;-90
2023/10/08 14:05:24;;;;;;;10.15;4.10;;;26.70;1.00;;;;;;4961204;29;20394;-91
2023/10/08 14:10:51;;;;;;;14.27;4.80;;;26.10;1.00;;;;;;4965610;28;20400;-90
2023/10/08 14:13:19;;;;;;;14.85;4.60;;;26.30;1.00;;;;;;4973967;28;20396;-90
2023/10/08 14:15:58;;;;;;;13.17;5.20;;;26.40;1.00;;;;;;4975045;28;20420;-89
2023/10/08 14:21:30;;;;;;;12.45;4.93;;;26.30;1.00;;;;;;4954987;28;20428;-91
2023/10/08 14:24:02;;;;;;;13.18;5.22;;;26.40;1.00;;;;;;4939581;29;20539;-90
2023/10/08 14:26:36;;;;;;;14.70;5.80;;;26.00;1.00;;;;;;4939521;29;20759;-90
2023/10/08 14:29:10;;;;;;;15.98;6.70;;;28.60;1.00;;;;;;4937586;29;20409;-90
2023/10/08 14:31:52;;;;;;;11.85;5.43;;;26.70;1.00;;;;;;4946365;28;21126;-90
2023/10/08 14:42:53;;;;;;;11.70;5.33;;;26.60;1.00;;;;;;4959335;28;20502;-91
2023/10/08 14:42:56;;;;;;;17.45;5.88;;;24.60;1.00;;;;;;4996245;28;20390;-91
2023/10/08 14:45:40;;;;;;;15.15;5.10;;;23.90;1.00;;;;;;4975646;28;20746;-91
2023/10/08 14:48:11;;;;;;;18.10;5.90;;;23.90;1.00;;;;;;4962979;28;20395;-91
2023/10/08 14:50:39;;;;;;;17.80;5.50;;;23.60;1.00;;;;;;4963931;28;20380;-91
2023/10/08 14:53:05;;;;;;;13.73;4.77;;;23.50;1.00;;;;;;4963928;28;20808;-90
2023/10/08 14:55:47;;;;;;;13.33;4.57;;;24.30;1.00;;;;;;4965454;28;20423;-90
2023/10/08 14:58:15;;;;;;;17.95;5.20;;;23.50;1.00;;;;;;4965001;28;20459;-91
2023/10/08 15:00:45;;;;;;;12.73;4.93;;;23.90;1.00;;;;;;4963722;28;20446;-91
2023/10/08 15:03:16;;;;;;;15.52;5.07;;;25.70;1.00;;;;;;4964361;28;20430;-91
2023/10/08 15:05:49;;;;;;;12.95;5.40;;;23.30;1.00;;;;;;4964779;28;20396;-91
2023/10/08 15:08:21;;;;;;;12.45;4.85;;;23.30;1.00;;;;;;4968127;28;20388;-91
2023/10/08 15:10:53;;;;;;;12.75;4.45;;;23.30;1.00;;;;;;4966855;28;20443;-91
2023/10/08 15:13:31;;;;;;;15.80;5.00;;;21.40;1.00;;;;;;4965379;28;20396;-92
2023/10/08 15:16:04;;;;;;;17.58;5.43;;;22.80;1.00;;;;;;4967099;28;20396;-91
2023/10/08 15:18:31;;;;;;;10.90;5.20;;;22.90;1.00;;;;;;4966568;28;20951;-92
2023/10/08 15:20:57;;;;;;;13.90;6.07;;;22.70;1.00;;;;;;4964917;28;20463;-91
2023/10/08 15:23:27;;;;;;;21.70;6.20;;;22.60;1.00;;;;;;4964770;28;20403;-91
2023/10/08 15:25:56;;;;;;;16.65;6.47;;;22.40;1.00;;;;;;4966416;28;20484;-91
2023/10/08 15:28:22;;;;;;;15.77;7.40;;;22.20;1.00;;;;;;4966051;28;20419;-91
2023/10/08 15:30:47;;;;;;;16.73;6.60;;;22.20;1.00;;;;;;4966626;28;20455;-91
2023/10/08 15:33:32;;;;;;;;;;;;;;;;;;;;;
2023/10/08 15:36:04;;;;;;;16.20;5.38;;;22.10;1.00;;;;;;4987297;28;20479;-91
2023/10/08 15:41:09;;;;;;;15.13;5.83;;;21.80;1.00;;;;;;5056371;23;20432;-92
2023/10/08 15:43:38;;;;;;;18.70;7.60;;;21.50;1.00;;;;;;4999547;28;20396;-92
2023/10/08 15:46:07;;;;;;;15.37;6.60;;;21.30;1.00;;;;;;4983388;28;20407;-93
2023/10/08 15:48:43;;;;;;;14.55;6.13;;;19.80;1.00;;;;;;4983368;28;20411;-93
2023/10/08 15:51:11;;;;;;;13.68;5.25;;;21.20;1.00;;;;;;4979799;28;20467;-92
2023/10/08 15:53:40;;;;;;;14.95;5.35;;;21.30;1.00;;;;;;4972430;28;20392;-91
2023/10/08 15:56:08;;;;;;;12.70;5.40;;;20.80;1.00;;;;;;4963214;28;21030;-86
2023/10/08 15:58:46;;;;;;;14.35;5.80;;;20.70;1.00;;;;;;4966094;28;20400;-86
2023/10/08 16:01:27;;;;;;;19.95;6.70;;;21.40;1.00;;;;;;4971478;28;20481;-85
2023/10/08 16:04:09;;;;;;;13.60;6.30;;;21.50;1.00;;;;;;4961080;28;20400;-85
2023/10/08 16:06:52;;;;;;;13.00;5.25;;;21.00;1.00;;;;;;4959320;28;20407;-85
2023/10/08 16:09:17;;;;;;;14.32;5.03;;;20.70;1.00;;;;;;4965179;28;20474;-85
2023/10/08 16:11:43;;;;;;;13.82;6.05;;;20.30;1.00;;;;;;4970873;28;20408;-85
2023/10/08 16:14:15;;;;;;;16.17;4.75;;;20.70;1.00;;;;;;4973304;28;20392;-86
2023/10/08 16:16:46;;;;;;;14.05;5.10;;;19.80;1.00;;;;;;4988815;28;20440;-86
2023/10/08 16:19:20;;;;;;;13.20;4.93;;;22.00;1.00;;;;;;4966917;28;21619;-87
2023/10/08 16:21:56;;;;;;;12.50;5.43;;;20.10;1.00;;;;;;4975762;28;20395;-87
2023/10/08 16:24:25;;;;;;;15.98;4.80;;;19.80;1.00;;;;;;4984393;28;20426;-88
2023/10/08 16:26:59;;;;;;;15.55;4.80;;;19.60;1.00;;;;;;5007989;28;20398;-88
2023/10/08 16:29:25;;;;;;;12.50;4.53;;;19.00;1.00;;;;;;4983921;28;20409;-88
2023/10/08 16:31:51;;;;;;;16.55;5.43;;;22.60;1.00;;;;;;4979333;28;20394;-86
2023/10/08 16:34:17;;;;;;;15.37;5.10;;;19.60;1.00;;;;;;4966420;28;20404;-88
2023/10/08 16:36:45;;;;;;;15.30;4.87;;;22.20;1.00;;;;;;4978332;28;20403;-87
2023/10/08 16:39:17;;;;;;;13.35;5.30;;;18.60;1.00;;;;;;4959335;28;20848;-86
2023/10/08 16:41:43;;;;;;;12.75;5.43;;;19.00;1.00;;;;;;4994751;28;22028;-85
2023/10/08 16:44:11;;;;;;;17.10;4.80;;;19.20;1.00;;;;;;4980348;28;20392;-86
2023/10/08 16:46:41;;;;;;;12.93;5.07;;;19.80;1.00;;;;;;4979060;28;20404;-86
2023/10/08 16:49:06;;;;;;;14.13;5.43;;;18.90;1.00;;;;;;4979331;28;20393;-86
2023/10/08 16:51:33;;;;;;;10.10;5.10;;;20.20;1.00;;;;;;4960439;28;20488;-87
2023/10/08 16:53:59;;;;;;;11.27;5.30;;;19.60;1.00;;;;;;4974217;28;20426;-86
2023/10/08 16:56:24;;;;;;;13.43;4.90;;;18.30;1.00;;;;;;4960549;28;20493;-87
2023/10/08 16:58:50;;;;;;;13.07;4.63;;;18.40;1.00;;;;;;4966482;28;20393;-85